sensor_id;sensor_type;location;lat;lon;timestamp;temperature;humidity
12434;DHT22;6281;49.038;8.372;2023-04-25T00:02:01;8.80;99.90
12434;DHT22;6281;49.038;8.372;2023-04-25T00:04:28;8.90;99.90
12434;DHT22;6281;49.038;8.372;2023-04-25T00:06:59;9.00;99.90
12434;DHT22;6281;49.038;8.372;2023-04-25T00:09:28;8.90;99.90
12434;DHT22;6281;49.038;8.372;2023-04-25T00:12:02;8.80;99.90
12434;DHT22;6281;49.038;8.372;2023-04-25T00:14:31;8.90;99.90
12434;DHT22;6281;49.038;8.372;2023-04-25T00:17:00;9.00;99.90
12434;DHT22;6281;49.038;8.372;2023-04-25T00:19:30;8.80;99.90
12434;DHT22;6281;49.038;8.372;2023-04-25T00:21:58;8.70;99.90
12434;DHT22;6281;49.038;8.372;2023-04-25T00:24:25;8.80;99.90
12434;DHT22;6281;49.038;8.372;2023-04-25T00:26:52;9.10;99.90
12434;DHT22;6281;49.038;8.372;2023-04-25T00:29:19;9.00;99.90
12434;DHT22;6281;49.038;8.372;2023-04-25T00:31:47;8.90;99.90
12434;DHT22;6281;49.038;8.372;2023-04-25T00:34:14;8.60;99.90
12434;DHT22;6281;49.038;8.372;2023-04-25T00:36:41;8.80;99.90
12434;DHT22;6281;49.038;8.372;2023-04-25T00:39:08;9.00;99.90
12434;DHT22;6281;49.038;8.372;2023-04-25T00:41:36;8.90;99.90
12434;DHT22;6281;49.038;8.372;2023-04-25T00:44:03;8.90;99.90
12434;DHT22;6281;49.038;8.372;2023-04-25T00:46:31;8.80;99.90
12434;DHT22;6281;49.038;8.372;2023-04-25T00:48:59;8.70;99.90
12434;DHT22;6281;49.038;8.372;2023-04-25T00:51:37;8.60;99.90
12434;DHT22;6281;49.038;8.372;2023-04-25T00:54:04;8.70;99.90
12434;DHT22;6281;49.038;8.372;2023-04-25T00:56:31;8.60;99.90
12434;DHT22;6281;49.038;8.372;2023-04-25T00:58:58;8.70;99.90
12434;DHT22;6281;49.038;8.372;2023-04-25T01:01:25;8.70;99.90
12434;DHT22;6281;49.038;8.372;2023-04-25T01:03:53;8.90;99.90
12434;DHT22;6281;49.038;8.372;2023-04-25T01:06:22;8.80;99.90
12434;DHT22;6281;49.038;8.372;2023-04-25T01:08:49;8.70;99.90
12434;DHT22;6281;49.038;8.372;2023-04-25T01:11:16;8.80;99.90
12434;DHT22;6281;49.038;8.372;2023-04-25T01:13:55;8.80;99.90
12434;DHT22;6281;49.038;8.372;2023-04-25T01:16:22;8.80;99.90
12434;DHT22;6281;49.038;8.372;2023-04-25T01:18:50;8.70;99.90
12434;DHT22;6281;49.038;8.372;2023-04-25T01:21:19;8.70;99.90
12434;DHT22;6281;49.038;8.372;2023-04-25T01:23:46;8.70;99.90
12434;DHT22;6281;49.038;8.372;2023-04-25T01:26:13;8.80;99.90
12434;DHT22;6281;49.038;8.372;2023-04-25T01:28:40;8.50;99.90
12434;DHT22;6281;49.038;8.372;2023-04-25T01:31:07;8.50;99.90
12434;DHT22;6281;49.038;8.372;2023-04-25T01:33:35;8.50;99.90
12434;DHT22;6281;49.038;8.372;2023-04-25T01:36:02;8.50;99.90
12434;DHT22;6281;49.038;8.372;2023-04-25T01:38:30;8.60;99.90
12434;DHT22;6281;49.038;8.372;2023-04-25T01:40:58;8.60;99.90
12434;DHT22;6281;49.038;8.372;2023-04-25T01:43:25;8.70;99.90
12434;DHT22;6281;49.038;8.372;2023-04-25T01:45:53;8.60;99.90
12434;DHT22;6281;49.038;8.372;2023-04-25T01:48:20;8.60;99.90
12434;DHT22;6281;49.038;8.372;2023-04-25T01:50:46;8.60;99.90
12434;DHT22;6281;49.038;8.372;2023-04-25T01:53:14;8.50;99.90
12434;DHT22;6281;49.038;8.372;2023-04-25T01:55:42;8.50;99.90
12434;DHT22;6281;49.038;8.372;2023-04-25T01:58:09;8.60;99.90
12434;DHT22;6281;49.038;8.372;2023-04-25T02:00:38;8.60;99.90
12434;DHT22;6281;49.038;8.372;2023-04-25T02:03:07;8.70;99.90
12434;DHT22;6281;49.038;8.372;2023-04-25T02:05:35;8.70;99.90
12434;DHT22;6281;49.038;8.372;2023-04-25T02:08:02;8.60;99.90
12434;DHT22;6281;49.038;8.372;2023-04-25T02:10:29;8.50;99.90
12434;DHT22;6281;49.038;8.372;2023-04-25T02:12:58;8.60;99.90
12434;DHT22;6281;49.038;8.372;2023-04-25T02:15:25;8.60;99.90
12434;DHT22;6281;49.038;8.372;2023-04-25T02:17:52;8.50;99.90
12434;DHT22;6281;49.038;8.372;2023-04-25T02:20:19;8.40;99.90
12434;DHT22;6281;49.038;8.372;2023-04-25T02:22:47;8.30;99.90
12434;DHT22;6281;49.038;8.372;2023-04-25T02:25:14;8.30;99.90
12434;DHT22;6281;49.038;8.372;2023-04-25T02:27:41;8.20;99.90
12434;DHT22;6281;49.038;8.372;2023-04-25T02:30:10;8.20;99.90
12434;DHT22;6281;49.038;8.372;2023-04-25T02:32:37;8.30;99.90
12434;DHT22;6281;49.038;8.372;2023-04-25T02:35:05;8.30;99.90
12434;DHT22;6281;49.038;8.372;2023-04-25T02:37:32;8.20;99.90
12434;DHT22;6281;49.038;8.372;2023-04-25T02:39:59;8.30;99.90
12434;DHT22;6281;49.038;8.372;2023-04-25T02:42:26;8.20;99.90
12434;DHT22;6281;49.038;8.372;2023-04-25T02:44:53;8.10;99.90
12434;DHT22;6281;49.038;8.372;2023-04-25T02:47:21;8.10;99.90
12434;DHT22;6281;49.038;8.372;2023-04-25T02:49:48;8.10;99.90
12434;DHT22;6281;49.038;8.372;2023-04-25T02:52:15;8.20;99.90
12434;DHT22;6281;49.038;8.372;2023-04-25T02:54:42;8.20;99.90
12434;DHT22;6281;49.038;8.372;2023-04-25T02:57:09;8.10;99.90
12434;DHT22;6281;49.038;8.372;2023-04-25T02:59:35;8.10;99.90
12434;DHT22;6281;49.038;8.372;2023-04-25T03:02:02;8.20;99.90
12434;DHT22;6281;49.038;8.372;2023-04-25T03:04:30;8.30;99.90
12434;DHT22;6281;49.038;8.372;2023-04-25T03:06:59;8.10;99.90
12434;DHT22;6281;49.038;8.372;2023-04-25T03:09:26;8.10;99.90
12434;DHT22;6281;49.038;8.372;2023-04-25T03:11:53;8.10;99.90
12434;DHT22;6281;49.038;8.372;2023-04-25T03:14:19;8.10;99.90
12434;DHT22;6281;49.038;8.372;2023-04-25T03:16:46;8.10;99.90
12434;DHT22;6281;49.038;8.372;2023-04-25T03:19:13;8.20;99.90
12434;DHT22;6281;49.038;8.372;2023-04-25T03:21:43;8.10;99.90
12434;DHT22;6281;49.038;8.372;2023-04-25T03:24:10;8.20;99.90
12434;DHT22;6281;49.038;8.372;2023-04-25T03:26:37;8.10;99.90
12434;DHT22;6281;49.038;8.372;2023-04-25T03:29:04;8.10;99.90
12434;DHT22;6281;49.038;8.372;2023-04-25T03:31:31;8.20;99.90
12434;DHT22;6281;49.038;8.372;2023-04-25T03:33:58;8.00;99.90
12434;DHT22;6281;49.038;8.372;2023-04-25T03:36:25;8.00;99.90
12434;DHT22;6281;49.038;8.372;2023-04-25T03:38:53;8.10;99.90
12434;DHT22;6281;49.038;8.372;2023-04-25T03:41:20;8.00;99.90
12434;DHT22;6281;49.038;8.372;2023-04-25T03:43:47;8.00;99.90
12434;DHT22;6281;49.038;8.372;2023-04-25T03:46:14;8.10;99.90
12434;DHT22;6281;49.038;8.372;2023-04-25T03:48:41;8.10;99.90
12434;DHT22;6281;49.038;8.372;2023-04-25T03:51:08;8.10;99.90
12434;DHT22;6281;49.038;8.372;2023-04-25T03:53:35;8.10;99.90
12434;DHT22;6281;49.038;8.372;2023-04-25T03:56:04;8.00;99.90
12434;DHT22;6281;49.038;8.372;2023-04-25T03:58:31;8.20;99.90
12434;DHT22;6281;49.038;8.372;2023-04-25T04:00:58;8.10;99.90
12434;DHT22;6281;49.038;8.372;2023-04-25T04:03:24;8.00;99.90
12434;DHT22;6281;49.038;8.372;2023-04-25T04:05:51;8.10;99.90
12434;DHT22;6281;49.038;8.372;2023-04-25T04:08:18;8.00;99.90
12434;DHT22;6281;49.038;8.372;2023-04-25T04:10:45;8.20;99.90
12434;DHT22;6281;49.038;8.372;2023-04-25T04:13:13;8.10;99.90
12434;DHT22;6281;49.038;8.372;2023-04-25T04:15:40;8.20;99.90
12434;DHT22;6281;49.038;8.372;2023-04-25T04:18:07;8.20;99.90
12434;DHT22;6281;49.038;8.372;2023-04-25T04:20:34;8.20;99.90
12434;DHT22;6281;49.038;8.372;2023-04-25T04:23:01;8.20;99.90
12434;DHT22;6281;49.038;8.372;2023-04-25T04:25:28;8.20;99.90
12434;DHT22;6281;49.038;8.372;2023-04-25T04:27:55;8.30;99.90
12434;DHT22;6281;49.038;8.372;2023-04-25T04:30:24;8.30;99.90
12434;DHT22;6281;49.038;8.372;2023-04-25T04:32:54;8.40;99.90
12434;DHT22;6281;49.038;8.372;2023-04-25T04:35:22;8.20;99.90
12434;DHT22;6281;49.038;8.372;2023-04-25T04:37:49;8.20;99.90
12434;DHT22;6281;49.038;8.372;2023-04-25T04:40:16;8.40;99.90
12434;DHT22;6281;49.038;8.372;2023-04-25T04:42:44;8.40;99.90
12434;DHT22;6281;49.038;8.372;2023-04-25T04:45:12;8.40;99.90
12434;DHT22;6281;49.038;8.372;2023-04-25T04:47:40;8.40;99.90
12434;DHT22;6281;49.038;8.372;2023-04-25T04:50:09;8.10;99.90
12434;DHT22;6281;49.038;8.372;2023-04-25T04:52:36;8.40;99.90
12434;DHT22;6281;49.038;8.372;2023-04-25T04:55:05;8.40;99.90
12434;DHT22;6281;49.038;8.372;2023-04-25T04:57:33;8.60;99.90
12434;DHT22;6281;49.038;8.372;2023-04-25T05:00:00;8.60;99.90
12434;DHT22;6281;49.038;8.372;2023-04-25T05:02:28;8.70;99.90
12434;DHT22;6281;49.038;8.372;2023-04-25T05:04:56;8.50;99.90
12434;DHT22;6281;49.038;8.372;2023-04-25T05:07:23;8.50;99.90
12434;DHT22;6281;49.038;8.372;2023-04-25T05:09:50;8.50;99.90
12434;DHT22;6281;49.038;8.372;2023-04-25T05:12:17;8.70;99.90
12434;DHT22;6281;49.038;8.372;2023-04-25T05:14:44;8.80;99.90
12434;DHT22;6281;49.038;8.372;2023-04-25T05:17:11;8.70;99.90
12434;DHT22;6281;49.038;8.372;2023-04-25T05:19:39;8.90;99.90
12434;DHT22;6281;49.038;8.372;2023-04-25T05:22:07;8.60;99.90
12434;DHT22;6281;49.038;8.372;2023-04-25T05:24:34;8.70;99.90
12434;DHT22;6281;49.038;8.372;2023-04-25T05:27:01;8.90;99.90
12434;DHT22;6281;49.038;8.372;2023-04-25T05:29:28;9.00;99.90
12434;DHT22;6281;49.038;8.372;2023-04-25T05:31:55;9.00;99.90
12434;DHT22;6281;49.038;8.372;2023-04-25T05:34:22;9.20;99.90
12434;DHT22;6281;49.038;8.372;2023-04-25T05:36:48;9.10;99.90
12434;DHT22;6281;49.038;8.372;2023-04-25T05:39:17;9.20;99.90
12434;DHT22;6281;49.038;8.372;2023-04-25T05:41:44;9.00;99.90
12434;DHT22;6281;49.038;8.372;2023-04-25T05:44:11;9.20;99.90
12434;DHT22;6281;49.038;8.372;2023-04-25T05:46:38;8.90;99.90
12434;DHT22;6281;49.038;8.372;2023-04-25T05:49:05;9.10;99.90
12434;DHT22;6281;49.038;8.372;2023-04-25T05:51:32;9.10;99.90
12434;DHT22;6281;49.038;8.372;2023-04-25T05:53:59;8.90;99.90
12434;DHT22;6281;49.038;8.372;2023-04-25T05:56:27;8.80;99.90
12434;DHT22;6281;49.038;8.372;2023-04-25T05:58:54;8.90;99.90
12434;DHT22;6281;49.038;8.372;2023-04-25T06:01:22;9.00;99.90
12434;DHT22;6281;49.038;8.372;2023-04-25T06:03:49;9.00;99.90
12434;DHT22;6281;49.038;8.372;2023-04-25T06:06:16;9.10;99.90
12434;DHT22;6281;49.038;8.372;2023-04-25T06:08:43;9.00;99.90
12434;DHT22;6281;49.038;8.372;2023-04-25T06:11:10;8.90;99.90
12434;DHT22;6281;49.038;8.372;2023-04-25T06:13:39;9.00;99.90
12434;DHT22;6281;49.038;8.372;2023-04-25T06:16:06;9.00;99.90
12434;DHT22;6281;49.038;8.372;2023-04-25T06:18:33;8.90;99.90
12434;DHT22;6281;49.038;8.372;2023-04-25T06:21:00;8.80;99.90
12434;DHT22;6281;49.038;8.372;2023-04-25T06:23:28;8.70;99.90
12434;DHT22;6281;49.038;8.372;2023-04-25T06:25:54;8.60;99.90
12434;DHT22;6281;49.038;8.372;2023-04-25T06:28:21;8.50;99.90
12434;DHT22;6281;49.038;8.372;2023-04-25T06:30:51;8.40;99.90
12434;DHT22;6281;49.038;8.372;2023-04-25T06:33:18;8.60;99.90
12434;DHT22;6281;49.038;8.372;2023-04-25T06:35:45;8.50;99.90
12434;DHT22;6281;49.038;8.372;2023-04-25T06:38:12;8.50;99.90
12434;DHT22;6281;49.038;8.372;2023-04-25T06:40:39;8.30;99.90
12434;DHT22;6281;49.038;8.372;2023-04-25T06:43:06;8.50;99.90
12434;DHT22;6281;49.038;8.372;2023-04-25T06:45:32;8.40;99.90
12434;DHT22;6281;49.038;8.372;2023-04-25T06:48:01;8.50;99.90
12434;DHT22;6281;49.038;8.372;2023-04-25T06:50:27;8.70;99.90
12434;DHT22;6281;49.038;8.372;2023-04-25T06:52:56;9.10;99.90
12434;DHT22;6281;49.038;8.372;2023-04-25T06:55:23;9.40;99.90
12434;DHT22;6281;49.038;8.372;2023-04-25T06:57:50;9.40;99.90
12434;DHT22;6281;49.038;8.372;2023-04-25T07:00:17;8.80;99.90
12434;DHT22;6281;49.038;8.372;2023-04-25T07:02:44;8.90;99.90
12434;DHT22;6281;49.038;8.372;2023-04-25T07:05:13;8.70;99.90
12434;DHT22;6281;49.038;8.372;2023-04-25T07:07:40;9.30;99.90
12434;DHT22;6281;49.038;8.372;2023-04-25T07:10:07;8.80;99.90
12434;DHT22;6281;49.038;8.372;2023-04-25T07:12:34;8.70;99.90
12434;DHT22;6281;49.038;8.372;2023-04-25T07:15:01;8.70;99.90
12434;DHT22;6281;49.038;8.372;2023-04-25T07:17:32;8.80;99.90
12434;DHT22;6281;49.038;8.372;2023-04-25T07:19:59;8.70;99.90
12434;DHT22;6281;49.038;8.372;2023-04-25T07:22:28;9.00;99.90
12434;DHT22;6281;49.038;8.372;2023-04-25T07:24:55;9.30;99.90
12434;DHT22;6281;49.038;8.372;2023-04-25T07:27:22;9.10;99.90
12434;DHT22;6281;49.038;8.372;2023-04-25T07:29:49;9.10;99.90
12434;DHT22;6281;49.038;8.372;2023-04-25T07:32:16;8.70;99.90
12434;DHT22;6281;49.038;8.372;2023-04-25T07:34:43;8.80;99.90
12434;DHT22;6281;49.038;8.372;2023-04-25T07:37:10;9.10;99.90
12434;DHT22;6281;49.038;8.372;2023-04-25T07:39:38;8.70;99.90
12434;DHT22;6281;49.038;8.372;2023-04-25T07:42:05;8.80;99.90
12434;DHT22;6281;49.038;8.372;2023-04-25T07:44:33;9.10;99.90
12434;DHT22;6281;49.038;8.372;2023-04-25T07:47:04;8.80;99.90
12434;DHT22;6281;49.038;8.372;2023-04-25T07:49:32;9.00;99.90
12434;DHT22;6281;49.038;8.372;2023-04-25T07:52:00;9.20;99.90
12434;DHT22;6281;49.038;8.372;2023-04-25T07:54:26;9.00;99.90
12434;DHT22;6281;49.038;8.372;2023-04-25T07:56:55;8.90;99.90
12434;DHT22;6281;49.038;8.372;2023-04-25T07:59:22;8.90;99.90
12434;DHT22;6281;49.038;8.372;2023-04-25T08:01:49;8.90;99.90
12434;DHT22;6281;49.038;8.372;2023-04-25T08:04:16;9.00;99.90
12434;DHT22;6281;49.038;8.372;2023-04-25T08:06:43;9.20;99.90
12434;DHT22;6281;49.038;8.372;2023-04-25T08:09:11;8.80;99.90
12434;DHT22;6281;49.038;8.372;2023-04-25T08:11:38;8.80;99.90
12434;DHT22;6281;49.038;8.372;2023-04-25T08:14:06;8.90;99.90
12434;DHT22;6281;49.038;8.372;2023-04-25T08:16:33;8.90;99.90
12434;DHT22;6281;49.038;8.372;2023-04-25T08:19:00;8.90;99.90
12434;DHT22;6281;49.038;8.372;2023-04-25T08:21:27;9.10;99.90
12434;DHT22;6281;49.038;8.372;2023-04-25T08:23:54;8.90;99.90
12434;DHT22;6281;49.038;8.372;2023-04-25T08:26:22;8.90;99.90
12434;DHT22;6281;49.038;8.372;2023-04-25T08:28:50;9.10;99.90
12434;DHT22;6281;49.038;8.372;2023-04-25T08:31:18;8.90;99.90
12434;DHT22;6281;49.038;8.372;2023-04-25T08:33:46;8.90;99.90
12434;DHT22;6281;49.038;8.372;2023-04-25T08:36:13;8.90;99.90
12434;DHT22;6281;49.038;8.372;2023-04-25T08:38:40;9.10;99.90
12434;DHT22;6281;49.038;8.372;2023-04-25T08:41:07;9.20;99.90
12434;DHT22;6281;49.038;8.372;2023-04-25T08:43:34;9.10;99.90
12434;DHT22;6281;49.038;8.372;2023-04-25T08:46:01;9.10;99.90
12434;DHT22;6281;49.038;8.372;2023-04-25T08:48:32;9.10;99.90
12434;DHT22;6281;49.038;8.372;2023-04-25T08:51:01;9.00;99.90
12434;DHT22;6281;49.038;8.372;2023-04-25T08:53:30;9.00;99.90
12434;DHT22;6281;49.038;8.372;2023-04-25T08:55:59;8.90;99.90
12434;DHT22;6281;49.038;8.372;2023-04-25T08:58:27;9.00;99.90
12434;DHT22;6281;49.038;8.372;2023-04-25T09:00:55;9.10;99.90
12434;DHT22;6281;49.038;8.372;2023-04-25T09:03:22;8.90;99.90
12434;DHT22;6281;49.038;8.372;2023-04-25T09:05:51;8.80;99.90
12434;DHT22;6281;49.038;8.372;2023-04-25T09:08:18;9.00;99.90
12434;DHT22;6281;49.038;8.372;2023-04-25T09:10:45;9.10;99.90
12434;DHT22;6281;49.038;8.372;2023-04-25T09:13:14;9.10;99.90
12434;DHT22;6281;49.038;8.372;2023-04-25T09:15:48;8.80;99.90
12434;DHT22;6281;49.038;8.372;2023-04-25T09:18:22;9.10;99.90
12434;DHT22;6281;49.038;8.372;2023-04-25T09:20:53;9.10;99.90
12434;DHT22;6281;49.038;8.372;2023-04-25T09:23:21;9.40;99.90
12434;DHT22;6281;49.038;8.372;2023-04-25T09:25:49;9.20;99.90
12434;DHT22;6281;49.038;8.372;2023-04-25T09:28:17;9.00;99.90
12434;DHT22;6281;49.038;8.372;2023-04-25T09:30:49;9.00;99.90
12434;DHT22;6281;49.038;8.372;2023-04-25T09:33:16;8.80;99.90
12434;DHT22;6281;49.038;8.372;2023-04-25T09:35:43;8.50;99.90
12434;DHT22;6281;49.038;8.372;2023-04-25T09:38:14;8.60;99.90
12434;DHT22;6281;49.038;8.372;2023-04-25T09:40:45;8.70;99.90
12434;DHT22;6281;49.038;8.372;2023-04-25T09:43:19;8.60;99.90
12434;DHT22;6281;49.038;8.372;2023-04-25T09:45:46;8.70;99.90
12434;DHT22;6281;49.038;8.372;2023-04-25T09:48:17;9.00;99.90
12434;DHT22;6281;49.038;8.372;2023-04-25T09:50:45;9.00;99.90
12434;DHT22;6281;49.038;8.372;2023-04-25T09:53:14;8.90;99.90
12434;DHT22;6281;49.038;8.372;2023-04-25T09:55:42;9.00;99.90
12434;DHT22;6281;49.038;8.372;2023-04-25T09:58:11;9.10;99.90
12434;DHT22;6281;49.038;8.372;2023-04-25T10:00:39;9.10;99.90
12434;DHT22;6281;49.038;8.372;2023-04-25T10:03:07;9.20;99.90
12434;DHT22;6281;49.038;8.372;2023-04-25T10:05:34;9.30;99.90
12434;DHT22;6281;49.038;8.372;2023-04-25T10:08:03;9.40;99.90
12434;DHT22;6281;49.038;8.372;2023-04-25T10:10:33;9.30;99.90
12434;DHT22;6281;49.038;8.372;2023-04-25T10:13:04;9.40;99.90
12434;DHT22;6281;49.038;8.372;2023-04-25T10:15:34;9.60;99.90
12434;DHT22;6281;49.038;8.372;2023-04-25T10:18:03;9.60;99.90
12434;DHT22;6281;49.038;8.372;2023-04-25T10:20:32;9.90;99.90
12434;DHT22;6281;49.038;8.372;2023-04-25T10:23:06;10.00;99.90
12434;DHT22;6281;49.038;8.372;2023-04-25T10:25:36;9.70;99.90
12434;DHT22;6281;49.038;8.372;2023-04-25T10:28:03;9.60;99.90
12434;DHT22;6281;49.038;8.372;2023-04-25T10:30:30;9.50;99.90
12434;DHT22;6281;49.038;8.372;2023-04-25T10:32:58;9.50;99.90
12434;DHT22;6281;49.038;8.372;2023-04-25T10:35:27;9.80;99.90
12434;DHT22;6281;49.038;8.372;2023-04-25T10:38:00;9.40;99.90
12434;DHT22;6281;49.038;8.372;2023-04-25T10:40:28;9.80;99.90
12434;DHT22;6281;49.038;8.372;2023-04-25T10:43:35;9.80;99.90
12434;DHT22;6281;49.038;8.372;2023-04-25T10:46:03;9.80;99.90
12434;DHT22;6281;49.038;8.372;2023-04-25T10:48:45;9.60;99.90
12434;DHT22;6281;49.038;8.372;2023-04-25T10:51:16;9.50;99.90
12434;DHT22;6281;49.038;8.372;2023-04-25T10:53:44;9.50;99.90
12434;DHT22;6281;49.038;8.372;2023-04-25T10:56:11;9.60;99.90
12434;DHT22;6281;49.038;8.372;2023-04-25T10:58:43;9.30;99.90
12434;DHT22;6281;49.038;8.372;2023-04-25T11:01:12;9.50;99.90
12434;DHT22;6281;49.038;8.372;2023-04-25T11:03:43;9.50;99.90
12434;DHT22;6281;49.038;8.372;2023-04-25T11:06:19;9.40;99.90
12434;DHT22;6281;49.038;8.372;2023-04-25T11:08:50;9.60;99.90
12434;DHT22;6281;49.038;8.372;2023-04-25T11:11:18;9.80;99.90
12434;DHT22;6281;49.038;8.372;2023-04-25T11:13:49;9.30;99.90
12434;DHT22;6281;49.038;8.372;2023-04-25T11:16:16;8.90;99.90
12434;DHT22;6281;49.038;8.372;2023-04-25T11:18:43;8.70;99.90
12434;DHT22;6281;49.038;8.372;2023-04-25T11:21:11;8.90;99.90
12434;DHT22;6281;49.038;8.372;2023-04-25T11:23:38;8.80;99.90
12434;DHT22;6281;49.038;8.372;2023-04-25T11:26:05;8.90;99.90
12434;DHT22;6281;49.038;8.372;2023-04-25T11:28:31;9.00;99.90
12434;DHT22;6281;49.038;8.372;2023-04-25T11:30:59;9.20;99.90
12434;DHT22;6281;49.038;8.372;2023-04-25T11:33:26;9.20;99.90
12434;DHT22;6281;49.038;8.372;2023-04-25T11:35:54;9.40;99.90
12434;DHT22;6281;49.038;8.372;2023-04-25T11:38:22;9.30;99.90
12434;DHT22;6281;49.038;8.372;2023-04-25T11:40:52;9.20;99.90
12434;DHT22;6281;49.038;8.372;2023-04-25T11:43:20;9.30;99.90
12434;DHT22;6281;49.038;8.372;2023-04-25T11:45:48;9.30;99.90
12434;DHT22;6281;49.038;8.372;2023-04-25T11:48:17;9.20;99.90
12434;DHT22;6281;49.038;8.372;2023-04-25T11:50:44;9.10;99.90
12434;DHT22;6281;49.038;8.372;2023-04-25T11:53:11;9.20;99.90
12434;DHT22;6281;49.038;8.372;2023-04-25T11:55:38;9.00;99.90
12434;DHT22;6281;49.038;8.372;2023-04-25T11:58:05;8.90;99.90
12434;DHT22;6281;49.038;8.372;2023-04-25T12:00:34;8.90;99.90
12434;DHT22;6281;49.038;8.372;2023-04-25T12:03:01;8.50;99.90
12434;DHT22;6281;49.038;8.372;2023-04-25T12:05:31;8.80;99.90
12434;DHT22;6281;49.038;8.372;2023-04-25T12:08:09;8.80;99.90
12434;DHT22;6281;49.038;8.372;2023-04-25T12:10:37;9.10;99.90
12434;DHT22;6281;49.038;8.372;2023-04-25T12:13:19;8.70;99.90
12434;DHT22;6281;49.038;8.372;2023-04-25T12:15:46;8.90;99.90
12434;DHT22;6281;49.038;8.372;2023-04-25T12:18:12;8.70;99.90
12434;DHT22;6281;49.038;8.372;2023-04-25T12:20:41;9.00;99.90
12434;DHT22;6281;49.038;8.372;2023-04-25T12:23:08;9.40;99.90
12434;DHT22;6281;49.038;8.372;2023-04-25T12:25:37;10.20;99.90
12434;DHT22;6281;49.038;8.372;2023-04-25T12:28:12;10.50;99.90
12434;DHT22;6281;49.038;8.372;2023-04-25T12:31:00;10.50;99.90
12434;DHT22;6281;49.038;8.372;2023-04-25T12:33:32;10.80;99.90
12434;DHT22;6281;49.038;8.372;2023-04-25T12:36:03;11.00;99.90
12434;DHT22;6281;49.038;8.372;2023-04-25T12:38:36;9.90;99.90
12434;DHT22;6281;49.038;8.372;2023-04-25T12:41:03;10.20;99.90
12434;DHT22;6281;49.038;8.372;2023-04-25T12:43:30;10.20;99.90
12434;DHT22;6281;49.038;8.372;2023-04-25T12:45:57;10.80;99.90
12434;DHT22;6281;49.038;8.372;2023-04-25T12:48:24;10.80;99.90
12434;DHT22;6281;49.038;8.372;2023-04-25T12:50:51;10.20;99.90
12434;DHT22;6281;49.038;8.372;2023-04-25T12:53:23;10.80;99.90
12434;DHT22;6281;49.038;8.372;2023-04-25T12:55:54;10.60;99.90
12434;DHT22;6281;49.038;8.372;2023-04-25T12:58:22;10.60;99.90
12434;DHT22;6281;49.038;8.372;2023-04-25T13:00:49;10.90;99.90
12434;DHT22;6281;49.038;8.372;2023-04-25T13:03:16;11.00;99.90
12434;DHT22;6281;49.038;8.372;2023-04-25T13:05:43;11.10;99.90
12434;DHT22;6281;49.038;8.372;2023-04-25T13:08:10;10.90;99.90
12434;DHT22;6281;49.038;8.372;2023-04-25T13:10:39;11.20;99.90
12434;DHT22;6281;49.038;8.372;2023-04-25T13:13:06;10.90;99.90
12434;DHT22;6281;49.038;8.372;2023-04-25T13:15:32;10.70;99.90
12434;DHT22;6281;49.038;8.372;2023-04-25T13:18:00;11.00;99.90
12434;DHT22;6281;49.038;8.372;2023-04-25T13:20:27;10.90;99.90
12434;DHT22;6281;49.038;8.372;2023-04-25T13:22:54;11.20;99.90
12434;DHT22;6281;49.038;8.372;2023-04-25T13:25:21;11.80;99.90
12434;DHT22;6281;49.038;8.372;2023-04-25T13:27:50;11.70;99.90
12434;DHT22;6281;49.038;8.372;2023-04-25T13:30:17;12.10;99.90
12434;DHT22;6281;49.038;8.372;2023-04-25T13:32:44;11.20;99.90
12434;DHT22;6281;49.038;8.372;2023-04-25T13:35:12;11.80;99.90
12434;DHT22;6281;49.038;8.372;2023-04-25T13:37:40;12.00;99.90
12434;DHT22;6281;49.038;8.372;2023-04-25T13:40:09;12.00;99.90
12434;DHT22;6281;49.038;8.372;2023-04-25T13:42:38;12.00;99.90
12434;DHT22;6281;49.038;8.372;2023-04-25T13:45:07;12.00;99.90
12434;DHT22;6281;49.038;8.372;2023-04-25T13:47:35;11.90;99.90
12434;DHT22;6281;49.038;8.372;2023-04-25T13:50:04;11.40;99.90
12434;DHT22;6281;49.038;8.372;2023-04-25T13:52:35;11.60;99.90
12434;DHT22;6281;49.038;8.372;2023-04-25T13:55:04;12.00;99.90
12434;DHT22;6281;49.038;8.372;2023-04-25T13:57:32;12.10;99.90
12434;DHT22;6281;49.038;8.372;2023-04-25T13:59:59;11.50;99.90
12434;DHT22;6281;49.038;8.372;2023-04-25T14:02:31;11.30;99.90
12434;DHT22;6281;49.038;8.372;2023-04-25T14:04:58;10.70;99.90
12434;DHT22;6281;49.038;8.372;2023-04-25T14:07:26;11.40;99.90
12434;DHT22;6281;49.038;8.372;2023-04-25T14:09:53;11.60;99.90
12434;DHT22;6281;49.038;8.372;2023-04-25T14:12:20;11.80;99.90
12434;DHT22;6281;49.038;8.372;2023-04-25T14:14:47;11.90;99.90
12434;DHT22;6281;49.038;8.372;2023-04-25T14:17:14;12.10;99.90
12434;DHT22;6281;49.038;8.372;2023-04-25T14:19:42;11.70;99.90
12434;DHT22;6281;49.038;8.372;2023-04-25T14:22:11;11.80;99.90
12434;DHT22;6281;49.038;8.372;2023-04-25T14:24:40;11.90;99.90
12434;DHT22;6281;49.038;8.372;2023-04-25T14:27:07;11.70;99.90
12434;DHT22;6281;49.038;8.372;2023-04-25T14:29:41;12.10;99.90
12434;DHT22;6281;49.038;8.372;2023-04-25T14:32:08;12.20;99.90
12434;DHT22;6281;49.038;8.372;2023-04-25T14:34:35;12.30;99.90
12434;DHT22;6281;49.038;8.372;2023-04-25T14:37:04;12.00;99.90
12434;DHT22;6281;49.038;8.372;2023-04-25T14:39:31;11.70;99.90
12434;DHT22;6281;49.038;8.372;2023-04-25T14:41:58;12.00;99.90
12434;DHT22;6281;49.038;8.372;2023-04-25T14:44:25;11.80;99.90
12434;DHT22;6281;49.038;8.372;2023-04-25T14:46:52;11.80;99.90
12434;DHT22;6281;49.038;8.372;2023-04-25T14:49:19;12.00;99.90
12434;DHT22;6281;49.038;8.372;2023-04-25T14:51:46;12.20;99.90
12434;DHT22;6281;49.038;8.372;2023-04-25T14:54:14;12.10;99.90
12434;DHT22;6281;49.038;8.372;2023-04-25T14:56:42;11.80;99.90
12434;DHT22;6281;49.038;8.372;2023-04-25T14:59:09;11.80;99.90
12434;DHT22;6281;49.038;8.372;2023-04-25T15:01:36;11.80;99.90
12434;DHT22;6281;49.038;8.372;2023-04-25T15:04:03;11.90;99.90
12434;DHT22;6281;49.038;8.372;2023-04-25T15:06:30;11.40;99.90
12434;DHT22;6281;49.038;8.372;2023-04-25T15:08:57;11.50;99.90
12434;DHT22;6281;49.038;8.372;2023-04-25T15:11:26;10.90;99.90
12434;DHT22;6281;49.038;8.372;2023-04-25T15:13:53;11.00;99.90
12434;DHT22;6281;49.038;8.372;2023-04-25T15:16:20;10.90;99.90
12434;DHT22;6281;49.038;8.372;2023-04-25T15:18:47;10.70;99.90
12434;DHT22;6281;49.038;8.372;2023-04-25T15:21:14;10.80;99.90
12434;DHT22;6281;49.038;8.372;2023-04-25T15:23:41;10.60;99.90
12434;DHT22;6281;49.038;8.372;2023-04-25T15:26:08;10.50;99.90
12434;DHT22;6281;49.038;8.372;2023-04-25T15:28:37;10.30;99.90
12434;DHT22;6281;49.038;8.372;2023-04-25T15:31:05;10.10;99.90
12434;DHT22;6281;49.038;8.372;2023-04-25T15:33:31;10.00;99.90
12434;DHT22;6281;49.038;8.372;2023-04-25T15:35:58;10.00;99.90
12434;DHT22;6281;49.038;8.372;2023-04-25T15:38:25;9.90;99.90
12434;DHT22;6281;49.038;8.372;2023-04-25T15:40:52;9.70;99.90
12434;DHT22;6281;49.038;8.372;2023-04-25T15:43:19;9.80;99.90
12434;DHT22;6281;49.038;8.372;2023-04-25T15:45:47;9.40;99.90
12434;DHT22;6281;49.038;8.372;2023-04-25T15:48:14;9.50;99.90
12434;DHT22;6281;49.038;8.372;2023-04-25T15:50:41;9.30;99.90
12434;DHT22;6281;49.038;8.372;2023-04-25T15:53:09;9.30;99.90
12434;DHT22;6281;49.038;8.372;2023-04-25T15:55:36;9.50;99.90
12434;DHT22;6281;49.038;8.372;2023-04-25T15:58:03;9.30;99.90
12434;DHT22;6281;49.038;8.372;2023-04-25T16:00:30;9.40;99.90
12434;DHT22;6281;49.038;8.372;2023-04-25T16:03:02;9.40;99.90
12434;DHT22;6281;49.038;8.372;2023-04-25T16:05:29;9.40;99.90